Bookmark and Share
Track history (hours):
 

Nord Copenhagen

Last reported at 2014-Jan-11 04:11 UTC. Time now 2014-Apr-25 06:11 UTC.
Position N 29°10' E 122°38'.
Warning: this ship's position is months out of date.

Length 177 m; draft 6.8 m.

Type: Cargo ship. MMSI: 373334000.

NotesDate/timePositionNaut miles runAvg speedWind from/ knotsBaromVisibWave heightAir tempDewpointWater temp
2014-Jan-11 04:11N 29°10' E 122°38'2513.9
2014-Jan-11 02:23N 29°33' E 122°50'35110.6
2014-Jan-09 17:15N 34°55' E 120°03'1013.2
2014-Jan-09 16:31N 34°53' E 119°52'1211.0
2014-Jan-09 15:24N 34°48' E 119°39'6 6.9
2014-Jan-09 14:33N 34°45' E 119°32'4 4.4
2014-Jan-09 13:33N 34°44' E 119°27'0 0.0
2014-Jan-09 12:33N 34°44' E 119°27'0 0.0
2014-Jan-09 11:33N 34°44' E 119°27'0 0.0
2014-Jan-09 10:22N 34°44' E 119°27'0 0.0
2014-Jan-09 09:22N 34°44' E 119°27'0 0.0
2014-Jan-09 08:28N 34°44' E 119°27'0 0.0
2014-Jan-09 07:28N 34°44' E 119°27'0 0.0
2014-Jan-09 06:28N 34°44' E 119°27'0 0.0
2014-Jan-09 05:28N 34°44' E 119°27'0 0.0
2014-Jan-09 04:28N 34°44' E 119°27'0 0.0
2014-Jan-09 03:28N 34°44' E 119°27'0 0.0
2014-Jan-09 02:28N 34°44' E 119°27'0 0.0
2014-Jan-09 01:28N 34°44' E 119°27'0 0.0
2014-Jan-09 00:10N 34°44' E 119°27'0 0.0
2014-Jan-08 23:28N 34°44' E 119°27'0 0.0
2014-Jan-08 22:22N 34°44' E 119°27'0 0.0
2014-Jan-08 21:28N 34°44' E 119°27'0 0.0
2014-Jan-08 20:22N 34°44' E 119°27'0 0.0
2014-Jan-08 19:28N 34°44' E 119°27'0 0.0
2014-Jan-08 18:28N 34°44' E 119°27'0 0.0
2014-Jan-08 17:28N 34°44' E 119°27'0 0.0
2014-Jan-08 16:28N 34°44' E 119°27'0 0.0
2014-Jan-08 15:28N 34°44' E 119°27'0 0.0
2014-Jan-08 14:28N 34°44' E 119°27'0 0.0
2014-Jan-08 13:28N 34°44' E 119°27'0 0.0
2014-Jan-08 12:28N 34°44' E 119°27'0 0.0
2014-Jan-08 11:28N 34°44' E 119°27'0 0.0
2014-Jan-08 10:28N 34°44' E 119°27'0 0.0
2014-Jan-08 09:28N 34°44' E 119°27'0 0.0
2014-Jan-08 08:16N 34°44' E 119°27'0 0.0
2014-Jan-08 07:28N 34°44' E 119°27'0 0.0
2014-Jan-08 06:28N 34°44' E 119°27'0 0.0
2014-Jan-08 05:28N 34°44' E 119°27'0 0.0
2014-Jan-08 04:28N 34°44' E 119°27'0 0.0
2014-Jan-08 03:28N 34°44' E 119°27'0 0.0
2014-Jan-08 02:28N 34°44' E 119°27'0 0.0
2014-Jan-08 01:28N 34°44' E 119°27'0 0.0
2014-Jan-08 00:28N 34°44' E 119°27'0 0.0
2014-Jan-07 23:28N 34°44' E 119°27'0 0.0
2014-Jan-07 22:16N 34°44' E 119°27'0 0.0
2014-Jan-07 21:22N 34°44' E 119°27'0 0.0
2014-Jan-07 20:28N 34°44' E 119°27'0 0.0
2014-Jan-07 19:34N 34°44' E 119°27'0 0.0
2014-Jan-07 17:22N 34°44' E 119°27'0 0.0
2014-Jan-07 16:28N 34°44' E 119°27'0 0.0
2014-Jan-07 15:28N 34°44' E 119°27'0 0.0
2014-Jan-07 14:28N 34°44' E 119°27'4 4.7
2014-Jan-07 13:33N 34°45' E 119°32'13 3.9
2014-Jan-07 10:10N 34°52' E 119°46'0 0.1
2014-Jan-07 08:22N 34°52' E 119°46'0 0.0
2014-Jan-07 06:22N 34°52' E 119°46'0 0.1
2014-Jan-07 05:28N 34°52' E 119°46'0 0.1
2014-Jan-07 04:10N 34°52' E 119°46'0 0.1
2014-Jan-07 03:22N 34°52' E 119°46'0 0.0
2014-Jan-06 22:16N 34°52' E 119°46'0 0.0
2014-Jan-06 21:33N 34°52' E 119°46'0 0.0
2014-Jan-06 17:34N 34°52' E 119°46'0 0.1
2014-Jan-06 15:28N 34°52' E 119°46'0 0.0
2014-Jan-06 12:10N 34°52' E 119°46'0 0.1
2014-Jan-06 11:04N 34°52' E 119°46'0 0.0
2014-Jan-06 01:28N 34°52' E 119°46'0 0.1
2014-Jan-05 22:22N 34°52' E 119°46'0 0.0
2014-Jan-05 11:22N 34°52' E 119°46'0 0.1
2014-Jan-05 10:22N 34°52' E 119°46'0 0.0
2014-Jan-05 09:28N 34°52' E 119°46'0 0.0
2014-Jan-05 08:09N 34°52' E 119°46'0 0.1
2014-Jan-05 05:27N 34°52' E 119°46'6 0.5
2014-Jan-04 15:26N 34°54' E 119°54'7 7.8
2014-Jan-04 14:33N 34°56' E 120°01'  

Dump ship's entire track history

sailing weather and tide predictions

Nord Copenhagen — 3FNV7 — position and weather